Time;durP1;ratioP1;P1;durP2;ratioP2;P2;SDS_P1;SDS_P2;PMS_P1;PMS_P2;Temp;Humidity;BMP_temperature;BMP_pressure;BME280_temperature;BME280_humidity;BME280_pressure;Samples;Min_cycle;Max_cycle;Signal;HPM_P1;HPM_P2
2023/09/10 00:01:53;;;;;;;;;;;;;;;22.20;58.51;101240.38;4185237;28;20474;-64
2023/09/10 00:03:56;;;;;;;;;;;;;;;22.19;58.41;101238.69;4171713;28;19984;-65
2023/09/10 00:05:58;;;;;;;;;;;;;;;22.16;58.05;101240.00;4171753;28;20019;-64
2023/09/10 00:08:00;;;;;;;;;;;;;;;22.15;58.36;101238.34;4170543;28;20011;-65
2023/09/10 00:10:02;;;;;;;;;;;;;;;22.12;58.63;101236.91;4170568;28;20035;-65
2023/09/10 00:12:04;;;;;;;;;;;;;;;22.10;58.41;101241.81;4169651;28;20027;-64
2023/09/10 00:14:06;;;;;;;;;;;;;;;22.06;58.61;101231.53;4170760;28;20019;-64
2023/09/10 00:16:10;;;;;;;;;;;;;;;22.03;58.60;101234.78;4170102;28;20020;-64
2023/09/10 00:18:12;;;;;;;;;;;;;;;22.00;58.77;101236.09;4170375;28;20015;-65
2023/09/10 00:20:14;;;;;;;;;;;;;;;21.96;58.80;101238.50;4169054;28;20019;-64
2023/09/10 00:22:16;;;;;;;;;;;;;;;21.92;58.68;101230.97;4169961;28;19925;-64
2023/09/10 00:24:18;;;;;;;;;;;;;;;21.88;58.69;101227.88;4170214;28;20025;-65
2023/09/10 00:26:20;;;;;;;;;;;;;;;21.86;58.99;101231.91;4170332;28;20023;-64
2023/09/10 00:28:24;;;;;;;;;;;;;;;21.84;58.66;101231.34;4171516;28;20023;-64
2023/09/10 00:30:26;;;;;;;;;;;;;;;21.81;58.95;101224.41;4171269;28;20027;-65
2023/09/10 00:32:29;;;;;;;;;;;;;;;21.78;58.86;101222.94;4184891;28;20020;-64
2023/09/10 00:34:32;;;;;;;;;;;;;;;21.77;58.90;101223.19;4171016;28;20027;-64
2023/09/10 00:36:35;;;;;;;;;;;;;;;21.72;59.10;101231.34;4170407;28;20027;-64
2023/09/10 00:38:37;;;;;;;;;;;;;;;21.71;59.23;101226.94;4186712;28;20024;-63
2023/09/10 00:40:40;;;;;;;;;;;;;;;21.69;59.30;101220.81;4170776;28;20566;-64
2023/09/10 00:42:42;;;;;;;;;;;;;;;21.66;59.07;101221.28;4170342;28;20379;-64
2023/09/10 00:44:44;;;;;;;;;;;;;;;21.64;59.31;101223.44;4170285;28;20200;-65
2023/09/10 00:46:46;;;;;;;;;;;;;;;21.60;59.49;101223.94;4171215;28;20052;-65
2023/09/10 00:48:50;;;;;;;;;;;;;;;21.56;59.53;101219.97;4169937;28;20016;-65
2023/09/10 00:50:52;;;;;;;;;;;;;;;21.54;59.63;101215.81;4185157;28;20015;-66
2023/09/10 00:52:56;;;;;;;;;;;;;;;21.52;59.50;101217.94;4169627;28;20450;-65
2023/09/10 00:54:57;;;;;;;;;;;;;;;21.49;59.85;101208.28;4170630;28;20015;-64
2023/09/10 00:57:00;;;;;;;;;;;;;;;21.47;59.78;101209.56;4185986;28;19925;-64
2023/09/10 00:59:02;;;;;;;;;;;;;;;21.45;59.68;101214.47;4175041;28;20296;-64
2023/09/10 01:01:04;;;;;;;;;;;;;;;21.41;59.75;101223.19;4174144;28;20016;-64
2023/09/10 01:03:06;;;;;;;;;;;;;;;21.39;60.05;101218.97;4174001;28;19932;-64
2023/09/10 01:05:09;;;;;;;;;;;;;;;21.38;60.10;101220.06;4171466;28;20020;-64
2023/09/10 01:07:11;;;;;;;;;;;;;;;21.37;60.00;101224.72;4172077;28;20023;-64
2023/09/10 01:09:14;;;;;;;;;;;;;;;21.37;59.96;101219.22;4179332;28;20020;-64
2023/09/10 01:11:18;;;;;;;;;;;;;;;21.36;60.10;101225.81;4173177;28;20148;-66
2023/09/10 01:13:22;;;;;;;;;;;;;;;21.33;60.00;101217.19;4172147;28;20012;-64
2023/09/10 01:15:27;;;;;;;;;;;;;;;21.30;59.95;101217.66;4172449;28;20023;-64
2023/09/10 01:17:30;;;;;;;;;;;;;;;21.26;59.97;101230.22;4173484;28;20040;-67
2023/09/10 01:19:44;;;;;;;;;;;;;;;21.23;59.90;101226.84;4178309;28;20027;-64
2023/09/10 01:21:49;;;;;;;;;;;;;;;21.23;60.04;101229.59;4172360;28;20028;-65
2023/09/10 01:23:52;;;;;;;;;;;;;;;21.22;60.06;101233.44;4189260;28;20432;-65
2023/09/10 01:25:56;;;;;;;;;;;;;;;21.19;60.09;101231.16;4172520;28;20044;-64
2023/09/10 01:28:03;;;;;;;;;;;;;;;21.17;60.19;101236.03;4174130;28;20019;-65
2023/09/10 01:30:09;;;;;;;;;;;;;;;21.14;60.29;101233.75;4179204;28;20059;-66
2023/09/10 01:32:11;;;;;;;;;;;;;;;21.12;60.18;101238.66;4174354;28;20016;-64
2023/09/10 01:34:14;;;;;;;;;;;;;;;21.09;60.47;101239.13;4172448;28;20019;-63
2023/09/10 01:36:18;;;;;;;;;;;;;;;21.06;60.44;101243.19;4179391;28;20040;-65
2023/09/10 01:38:23;;;;;;;;;;;;;;;21.06;60.20;101242.34;4178878;28;20012;-63
2023/09/10 01:40:26;;;;;;;;;;;;;;;21.04;60.17;101237.06;4178535;28;20028;-64
2023/09/10 01:42:29;;;;;;;;;;;;;;;21.04;60.19;101233.50;4186358;28;20023;-64
2023/09/10 01:44:32;;;;;;;;;;;;;;;21.00;60.23;101227.66;4172543;28;20415;-66
2023/09/10 01:46:35;;;;;;;;;;;;;;;20.96;60.49;101237.41;4188604;28;20027;-64
2023/09/10 01:48:37;;;;;;;;;;;;;;;20.91;60.63;101231.81;4173292;28;20018;-64
2023/09/10 01:50:39;;;;;;;;;;;;;;;20.90;60.54;101235.59;4172131;28;20430;-64
2023/09/10 01:52:42;;;;;;;;;;;;;;;20.88;60.68;101235.84;4170646;28;20550;-65
2023/09/10 01:54:44;;;;;;;;;;;;;;;20.87;60.70;101236.06;4171314;28;20370;-64
2023/09/10 01:56:46;;;;;;;;;;;;;;;20.87;60.47;101236.06;4187413;28;20019;-65
2023/09/10 01:58:49;;;;;;;;;;;;;;;20.86;60.54;101234.38;4171458;28;20017;-65
2023/09/10 02:00:51;;;;;;;;;;;;;;;20.86;60.53;101239.88;4173425;28;20016;-65
2023/09/10 02:02:54;;;;;;;;;;;;;;;20.84;60.31;101236.53;4185947;28;20031;-65
2023/09/10 02:04:57;;;;;;;;;;;;;;;20.81;60.58;101242.50;4173183;28;19951;-65
2023/09/10 02:06:59;;;;;;;;;;;;;;;20.77;60.57;101239.38;4179078;28;20379;-64
2023/09/10 02:09:01;;;;;;;;;;;;;;;20.73;60.64;101234.59;4170329;28;20015;-64
2023/09/10 02:11:03;;;;;;;;;;;;;;;20.72;60.43;101239.25;4188237;28;20024;-64
2023/09/10 02:13:05;;;;;;;;;;;;;;;20.69;60.61;101236.97;4186709;28;20402;-64
2023/09/10 02:15:11;;;;;;;;;;;;;;;20.66;60.74;101240.19;4177462;28;20023;-65
2023/09/10 02:17:13;;;;;;;;;;;;;;;20.63;60.93;101238.69;4171218;28;20027;-65
2023/09/10 02:19:15;;;;;;;;;;;;;;;20.61;61.06;101234.50;4187332;28;20051;-65
2023/09/10 02:21:17;;;;;;;;;;;;;;;20.59;60.73;101239.41;4187367;28;20027;-66
2023/09/10 02:23:19;;;;;;;;;;;;;;;20.57;60.89;101238.81;4172390;28;20032;-64
2023/09/10 02:25:21;;;;;;;;;;;;;;;20.55;60.63;101238.16;4178443;28;19975;-65
2023/09/10 02:27:23;;;;;;;;;;;;;;;20.51;60.71;101241.38;4172785;28;20020;-65
2023/09/10 02:29:25;;;;;;;;;;;;;;;20.49;60.81;101238.03;4172461;28;20423;-65
2023/09/10 02:31:29;;;;;;;;;;;;;;;20.45;60.91;101236.81;4188251;28;20023;-66
2023/09/10 02:33:31;;;;;;;;;;;;;;;20.44;61.16;101242.53;4178184;28;20435;-64
2023/09/10 02:35:33;;;;;;;;;;;;;;;20.41;60.94;101241.09;4173174;28;20016;-64
2023/09/10 02:37:35;;;;;;;;;;;;;;;20.40;60.97;101238.59;4171012;28;20020;-66
2023/09/10 02:39:37;;;;;;;;;;;;;;;20.38;61.07;101240.72;4187409;28;20023;-65
2023/09/10 02:41:39;;;;;;;;;;;;;;;20.36;60.97;101232.75;4172633;28;20695;-65
2023/09/10 02:43:41;;;;;;;;;;;;;;;20.35;61.20;101242.03;4172999;28;20020;-65
2023/09/10 02:45:43;;;;;;;;;;;;;;;20.31;61.28;101241.66;4188290;28;20742;-65
2023/09/10 02:47:46;;;;;;;;;;;;;;;20.28;61.54;101239.38;4186409;28;20019;-65
2023/09/10 02:49:48;;;;;;;;;;;;;;;20.26;61.56;101246.97;4172037;28;20039;-65
2023/09/10 02:51:50;;;;;;;;;;;;;;;20.27;61.58;101245.09;4171695;28;20336;-65
2023/09/10 02:53:53;;;;;;;;;;;;;;;20.26;61.74;101246.13;4172116;28;20027;-65
2023/09/10 02:56:01;;;;;;;;;;;;;;;20.24;61.62;101242.81;4173125;28;20012;-65
2023/09/10 02:58:03;;;;;;;;;;;;;;;20.21;61.71;101244.09;4186598;28;20043;-64
2023/09/10 03:00:05;;;;;;;;;;;;;;;20.19;61.70;101248.97;4172778;28;20373;-65
2023/09/10 03:02:07;;;;;;;;;;;;;;;20.19;61.61;101250.84;4171228;28;20027;-65
2023/09/10 03:04:10;;;;;;;;;;;;;;;20.16;61.45;101239.28;4171137;28;20368;-65
2023/09/10 03:06:13;;;;;;;;;;;;;;;20.14;61.37;101246.91;4171635;28;19929;-65
2023/09/10 03:08:15;;;;;;;;;;;;;;;20.11;61.38;101244.63;4172940;28;20012;-66
2023/09/10 03:10:17;;;;;;;;;;;;;;;20.10;61.47;101248.44;4171862;28;20024;-65
2023/09/10 03:12:19;;;;;;;;;;;;;;;20.08;61.69;101241.50;4169979;28;20020;-65
2023/09/10 03:14:21;;;;;;;;;;;;;;;20.05;61.84;101237.31;4171833;28;20509;-65
2023/09/10 03:16:24;;;;;;;;;;;;;;;20.03;61.60;101236.72;4170778;28;20023;-64
2023/09/10 03:18:26;;;;;;;;;;;;;;;20.02;61.83;101234.19;4186162;28;20035;-64
2023/09/10 03:20:30;;;;;;;;;;;;;;;20.01;61.70;101246.22;4186148;28;20027;-64
2023/09/10 03:22:32;;;;;;;;;;;;;;;19.98;61.85;101242.03;4170226;28;20016;-65
2023/09/10 03:24:34;;;;;;;;;;;;;;;19.97;61.67;101237.63;4185796;28;20027;-65
2023/09/10 03:26:36;;;;;;;;;;;;;;;19.95;61.62;101245.22;4171719;28;19925;-64
2023/09/10 03:28:39;;;;;;;;;;;;;;;19.91;61.60;101244.84;4171277;28;20052;-65
2023/09/10 03:30:40;;;;;;;;;;;;;;;19.90;61.63;101239.59;4172364;28;20023;-64
2023/09/10 03:32:43;;;;;;;;;;;;;;;19.87;61.75;101240.84;4169552;28;20092;-64
2023/09/10 03:34:45;;;;;;;;;;;;;;;19.83;61.85;101241.53;4171082;28;19955;-63
2023/09/10 03:36:48;;;;;;;;;;;;;;;19.80;61.69;101240.09;4171277;28;20019;-64
2023/09/10 03:38:51;;;;;;;;;;;;;;;19.75;61.79;101229.78;4172013;28;20011;-64
2023/09/10 03:40:53;;;;;;;;;;;;;;;19.72;61.68;101222.03;4170699;28;20028;-65
2023/09/10 03:42:57;;;;;;;;;;;;;;;19.69;61.96;101232.59;4170578;28;20027;-65
2023/09/10 03:45:00;;;;;;;;;;;;;;;19.65;61.91;101221.25;4169910;28;20024;-64
2023/09/10 03:47:02;;;;;;;;;;;;;;;19.64;62.03;101227.81;4172556;28;20467;-65
2023/09/10 03:49:05;;;;;;;;;;;;;;;19.61;62.20;101223.59;4175546;28;20044;-65
2023/09/10 03:51:07;;;;;;;;;;;;;;;19.60;61.99;101218.34;4184030;28;20023;-65
2023/09/10 03:53:11;;;;;;;;;;;;;;;19.56;62.30;101220.72;4169533;28;20019;-65
2023/09/10 03:55:12;;;;;;;;;;;;;;;19.54;62.14;101222.81;4171130;28;20064;-64
2023/09/10 03:57:14;;;;;;;;;;;;;;;19.53;62.01;101217.56;4171224;28;20020;-64
2023/09/10 03:59:18;;;;;;;;;;;;;;;19.48;62.23;101220.97;4177076;28;20027;-65
2023/09/10 04:01:20;;;;;;;;;;;;;;;19.45;62.36;101216.81;4169791;28;20027;-65
2023/09/10 04:03:24;;;;;;;;;;;;;;;19.41;62.40;101209.25;4185940;28;20023;-65
2023/09/10 04:05:26;;;;;;;;;;;;;;;19.38;62.50;101212.44;4171395;28;20401;-64
2023/09/10 04:07:28;;;;;;;;;;;;;;;19.36;62.27;101215.41;4185262;28;19968;-65
2023/09/10 04:09:31;;;;;;;;;;;;;;;19.37;61.98;101221.72;4177552;28;20434;-64
2023/09/10 04:11:33;;;;;;;;;;;;;;;19.37;62.01;101222.56;4177384;28;20020;-65
2023/09/10 04:13:35;;;;;;;;;;;;;;;19.38;61.91;101221.47;4186586;28;20483;-65
2023/09/10 04:15:37;;;;;;;;;;;;;;;19.37;61.96;101224.44;4186183;28;20016;-64
2023/09/10 04:17:39;;;;;;;;;;;;;;;19.34;62.02;101219.41;4170986;28;20355;-65
2023/09/10 04:19:41;;;;;;;;;;;;;;;19.31;62.13;101233.56;4170778;28;20340;-66
2023/09/10 04:21:49;;;;;;;;;;;;;;;19.27;62.12;101227.69;4170510;28;20019;-66
2023/09/10 04:23:53;;;;;;;;;;;;;;;19.24;62.01;101234.44;4175748;28;20035;-66
2023/09/10 04:25:57;;;;;;;;;;;;;;;19.23;61.85;101231.94;4176035;28;20606;-66
2023/09/10 04:27:59;;;;;;;;;;;;;;;19.20;61.97;101230.50;4171390;28;19925;-66
2023/09/10 04:30:02;;;;;;;;;;;;;;;19.19;62.12;101234.28;4176501;28;20008;-66
2023/09/10 04:32:04;;;;;;;;;;;;;;;19.16;61.80;101234.72;4170542;28;20451;-66
2023/09/10 04:34:07;;;;;;;;;;;;;;;19.14;61.99;101236.00;4169180;28;20587;-65
2023/09/10 04:36:09;;;;;;;;;;;;;;;19.11;62.17;101236.44;4176616;28;20475;-66
2023/09/10 04:38:12;;;;;;;;;;;;;;;19.08;62.32;101237.75;4184729;28;20100;-66
2023/09/10 04:40:14;;;;;;;;;;;;;;;19.06;62.04;101237.97;4170396;28;20048;-66
2023/09/10 04:42:17;;;;;;;;;;;;;;;19.07;61.98;101247.00;4170959;28;20023;-64
2023/09/10 04:44:20;;;;;;;;;;;;;;;19.05;62.25;101249.97;4175645;28;20031;-64
2023/09/10 04:46:22;;;;;;;;;;;;;;;19.02;62.12;101249.56;4176976;28;20016;-65
2023/09/10 04:48:24;;;;;;;;;;;;;;;18.99;62.24;101250.84;4169372;28;19925;-64
2023/09/10 04:50:25;;;;;;;;;;;;;;;18.95;62.44;101244.16;4168018;28;20023;-65
2023/09/10 04:52:30;;;;;;;;;;;;;;;18.94;62.51;101247.94;4176142;28;20020;-64
2023/09/10 04:54:33;;;;;;;;;;;;;;;18.94;62.49;101252.59;4176439;28;20019;-65
2023/09/10 04:56:34;;;;;;;;;;;;;;;18.93;62.65;101249.00;4170318;28;20035;-66
2023/09/10 04:58:37;;;;;;;;;;;;;;;18.93;62.59;101248.16;4171470;28;19925;-66
2023/09/10 05:00:40;;;;;;;;;;;;;;;18.92;62.69;101252.81;4170390;28;20478;-65
2023/09/10 05:02:42;;;;;;;;;;;;;;;18.91;63.04;101264.81;4171048;28;20024;-65
2023/09/10 05:04:44;;;;;;;;;;;;;;;18.89;62.91;101253.25;4177087;28;20011;-65
2023/09/10 05:06:46;;;;;;;;;;;;;;;18.89;62.99;101255.97;4184567;28;20027;-66
2023/09/10 05:08:48;;;;;;;;;;;;;;;18.88;63.02;101255.13;4169495;28;20446;-67
2023/09/10 05:10:53;;;;;;;;;;;;;;;18.88;63.03;101255.13;4171500;28;20015;-66
2023/09/10 05:12:54;;;;;;;;;;;;;;;18.89;62.83;101256.81;4176327;28;20394;-65
2023/09/10 05:14:58;;;;;;;;;;;;;;;18.91;63.07;101262.06;4175824;28;20035;-66
2023/09/10 05:17:00;;;;;;;;;;;;;;;18.89;63.13;101261.44;4176667;28;20466;-66
2023/09/10 05:19:02;;;;;;;;;;;;;;;18.88;63.54;101262.50;4170991;28;20636;-66
2023/09/10 05:21:05;;;;;;;;;;;;;;;18.86;63.42;101273.66;4185423;28;20023;-66
2023/09/10 05:23:07;;;;;;;;;;;;;;;18.86;63.54;101272.84;4175998;28;20089;-66
2023/09/10 05:25:09;;;;;;;;;;;;;;;18.88;63.67;101262.50;4169300;28;20031;-68
2023/09/10 05:27:11;;;;;;;;;;;;;;;18.89;63.68;101266.94;4176586;28;20397;-66
2023/09/10 05:29:13;;;;;;;;;;;;;;;18.91;63.62;101276.56;4174995;28;20460;-66
2023/09/10 05:31:17;;;;;;;;;;;;;;;18.93;64.00;101265.41;4170837;28;20035;-67
2023/09/10 05:33:20;;;;;;;;;;;;;;;18.94;63.83;101269.84;4171568;28;20024;-66
2023/09/10 05:35:22;;;;;;;;;;;;;;;18.96;63.81;101281.41;4170816;28;20364;-65
2023/09/10 05:37:24;;;;;;;;;;;;;;;18.98;63.90;101278.44;4176488;28;20023;-66
2023/09/10 05:39:25;;;;;;;;;;;;;;;19.00;64.09;101270.88;4170151;28;20023;-65
2023/09/10 05:41:27;;;;;;;;;;;;;;;19.01;64.03;101270.66;4184471;28;20004;-66
2023/09/10 05:43:29;;;;;;;;;;;;;;;19.02;64.20;101275.03;4176928;28;20024;-65
2023/09/10 05:45:32;;;;;;;;;;;;;;;19.05;64.07;101273.78;4187724;28;20016;-66
2023/09/10 05:47:38;;;;;;;;;;;;;;;19.07;64.18;101275.25;4179335;28;20363;-66
2023/09/10 05:49:40;;;;;;;;;;;;;;;19.11;64.28;101275.63;4172148;28;19932;-65
2023/09/10 05:51:44;;;;;;;;;;;;;;;19.14;64.26;101274.34;4188950;28;20011;-67
2023/09/10 05:53:47;;;;;;;;;;;;;;;19.16;64.26;101278.53;4179488;28;20047;-68
2023/09/10 05:55:49;;;;;;;;;;;;;;;19.18;64.41;101270.09;4186842;28;19929;-68
2023/09/10 05:57:52;;;;;;;;;;;;;;;19.21;64.46;101270.50;4187747;28;20023;-68
2023/09/10 05:59:55;;;;;;;;;;;;;;;19.25;64.68;101276.38;4177829;28;20459;-64
2023/09/10 06:01:57;;;;;;;;;;;;;;;19.29;64.44;101280.34;4177651;28;20019;-67
2023/09/10 06:04:02;;;;;;;;;;;;;;;19.31;64.69;101275.50;4172575;28;20372;-68
2023/09/10 06:06:05;;;;;;;;;;;;;;;19.35;64.70;101275.88;4178929;28;20015;-68
2023/09/10 06:08:06;;;;;;;;;;;;;;;19.37;64.69;101273.75;4173605;28;20016;-68
2023/09/10 06:10:09;;;;;;;;;;;;;;;19.40;64.59;101276.03;4187556;28;20349;-66
2023/09/10 06:12:12;;;;;;;;;;;;;;;19.44;64.97;101277.28;4170677;28;20027;-68
2023/09/10 06:14:14;;;;;;;;;;;;;;;19.47;64.54;101278.72;4187580;28;20031;-67
2023/09/10 06:16:17;;;;;;;;;;;;;;;19.50;64.84;101278.28;4172603;28;20083;-66
2023/09/10 06:18:19;;;;;;;;;;;;;;;19.53;64.54;101277.81;4187502;28;20007;-67
2023/09/10 06:20:23;;;;;;;;;;;;;;;19.57;64.50;101279.06;4188103;28;20019;-67
2023/09/10 06:22:25;;;;;;;;;;;;;;;19.59;64.66;101274.19;4172700;28;19992;-66
2023/09/10 06:24:27;;;;;;;;;;;;;;;19.61;64.63;101275.66;4171139;28;20036;-68
2023/09/10 06:26:29;;;;;;;;;;;;;;;19.66;64.65;101276.91;4177485;28;20032;-66
2023/09/10 06:28:32;;;;;;;;;;;;;;;19.68;64.53;101275.59;4178982;28;20023;-66
2023/09/10 06:30:35;;;;;;;;;;;;;;;19.71;64.11;101280.63;4171233;28;19932;-67
2023/09/10 06:32:39;;;;;;;;;;;;;;;19.72;64.35;101278.75;4188071;28;20014;-66
2023/09/10 06:34:41;;;;;;;;;;;;;;;19.74;64.18;101280.19;4178330;28;20019;-67
2023/09/10 06:36:45;;;;;;;;;;;;;;;19.78;64.43;101283.31;4178238;28;19924;-66
2023/09/10 06:38:47;;;;;;;;;;;;;;;19.81;64.44;101280.13;4187592;28;20023;-65
2023/09/10 06:40:51;;;;;;;;;;;;;;;19.84;64.16;101281.59;4187422;28;20458;-65
2023/09/10 06:42:54;;;;;;;;;;;;;;;19.87;64.39;101287.47;4173860;28;19929;-65
2023/09/10 06:45:10;;;;;;;;;;;;;;;19.90;64.17;101278.78;4171598;28;20579;-67
2023/09/10 06:47:12;;;;;;;;;;;;;;;19.94;64.00;101287.41;4172364;28;20011;-66
2023/09/10 06:49:15;;;;;;;;;;;;;;;19.96;63.61;101294.34;4171899;28;20071;-65
2023/09/10 06:51:17;;;;;;;;;;;;;;;20.02;63.64;101291.78;4171421;28;20426;-66
2023/09/10 06:53:20;;;;;;;;;;;;;;;20.06;63.77;101284.75;4173265;28;20367;-67
2023/09/10 06:55:23;;;;;;;;;;;;;;;20.10;63.80;101286.81;4171016;28;20031;-67
2023/09/10 06:57:25;;;;;;;;;;;;;;;20.14;63.65;101284.44;4172409;28;20012;-65
2023/09/10 06:59:28;;;;;;;;;;;;;;;20.19;63.33;101287.38;4171748;28;20598;-66
2023/09/10 07:01:29;;;;;;;;;;;;;;;20.25;63.40;101285.59;4171379;28;20036;-65
2023/09/10 07:03:32;;;;;;;;;;;;;;;20.28;63.39;101283.25;4170306;28;19939;-68
2023/09/10 07:05:34;;;;;;;;;;;;;;;20.32;63.25;101281.72;4171329;28;20040;-67
2023/09/10 07:07:35;;;;;;;;;;;;;;;20.35;63.02;101286.75;4171800;28;20549;-67
2023/09/10 07:09:38;;;;;;;;;;;;;;;20.39;63.54;101289.88;4172095;28;20392;-67
2023/09/10 07:11:40;;;;;;;;;;;;;;;20.44;63.59;101289.16;4171791;28;19925;-67
2023/09/10 07:13:42;;;;;;;;;;;;;;;20.46;63.40;101290.63;4171659;28;20347;-67
2023/09/10 07:15:44;;;;;;;;;;;;;;;20.50;63.18;101286.38;4170890;28;20385;-66
2023/09/10 07:17:46;;;;;;;;;;;;;;;20.55;63.52;101293.06;4176716;28;20415;-66
2023/09/10 07:19:48;;;;;;;;;;;;;;;20.59;63.71;101291.53;4170474;28;20075;-67
2023/09/10 07:21:50;;;;;;;;;;;;;;;20.62;63.35;101291.91;4170739;28;20023;-66
2023/09/10 07:23:52;;;;;;;;;;;;;;;20.67;63.54;101296.72;4171662;28;20008;-65
2023/09/10 07:25:55;;;;;;;;;;;;;;;20.70;63.12;101288.91;4171194;28;20053;-64
2023/09/10 07:27:57;;;;;;;;;;;;;;;20.76;62.85;101292.59;4169814;28;20488;-65
2023/09/10 07:29:59;;;;;;;;;;;;;;;20.81;63.19;101287.25;4170556;28;20603;-64
2023/09/10 07:32:01;;;;;;;;;;;;;;;20.85;62.64;101291.22;4169566;28;19932;-64
2023/09/10 07:34:04;;;;;;;;;;;;;;;20.92;62.62;101298.53;4171093;28;20019;-64
2023/09/10 07:36:15;;;;;;;;;;;;;;;20.98;62.75;101294.84;4170510;28;19925;-64
2023/09/10 07:38:21;;;;;;;;;;;;;;;21.03;62.64;101298.59;4172392;28;19982;-64
2023/09/10 07:40:23;;;;;;;;;;;;;;;21.06;62.58;101295.38;4170678;28;20045;-64
2023/09/10 07:42:26;;;;;;;;;;;;;;;21.12;62.18;101301.81;4172342;28;20016;-65
2023/09/10 07:44:28;;;;;;;;;;;;;;;21.16;61.90;101297.53;4172912;28;20071;-65
2023/09/10 07:46:30;;;;;;;;;;;;;;;21.20;61.78;101290.50;4171145;28;20015;-64
2023/09/10 07:48:32;;;;;;;;;;;;;;;21.25;61.78;101298.03;4171257;28;19925;-66
2023/09/10 07:50:34;;;;;;;;;;;;;;;21.31;61.58;101296.25;4171368;28;19925;-64
2023/09/10 07:52:39;;;;;;;;;;;;;;;21.35;61.41;101303.81;4186507;28;19936;-66
2023/09/10 07:54:43;;;;;;;;;;;;;;;21.42;61.35;101306.44;4171133;28;20024;-65
2023/09/10 07:56:47;;;;;;;;;;;;;;;21.48;60.84;101305.50;4170180;28;20019;-64
2023/09/10 07:59:01;;;;;;;;;;;;;;;21.55;60.70;101302.66;4170728;28;20020;-66
2023/09/10 08:01:03;;;;;;;;;;;;;;;21.61;60.53;101309.97;4172436;28;19929;-65
2023/09/10 08:03:06;;;;;;;;;;;;;;;21.65;60.25;101305.69;4170475;28;20370;-65
2023/09/10 08:05:09;;;;;;;;;;;;;;;21.71;60.31;101303.91;4170556;28;20438;-65
2023/09/10 08:07:15;;;;;;;;;;;;;;;21.78;59.92;101299.94;4169568;28;20016;-64
2023/09/10 08:09:17;;;;;;;;;;;;;;;21.84;60.17;101300.91;4174849;28;19951;-64
2023/09/10 08:11:19;;;;;;;;;;;;;;;21.89;59.86;101297.44;4170896;28;20020;-65
2023/09/10 08:13:23;;;;;;;;;;;;;;;21.94;59.67;101294.78;4171139;28;19933;-72
2023/09/10 08:15:27;;;;;;;;;;;;;;;22.01;59.50;101294.69;4171773;28;19949;-71
2023/09/10 08:17:30;;;;;;;;;;;;;;;22.07;59.29;101301.97;4171612;28;20027;-70
2023/09/10 08:19:33;;;;;;;;;;;;;;;22.12;58.94;101299.34;4170446;28;20035;-72
2023/09/10 08:21:37;;;;;;;;;;;;;;;22.18;59.15;101300.28;4169319;28;19933;-71
2023/09/10 08:23:39;;;;;;;;;;;;;;;22.23;58.77;101303.16;4168930;28;19992;-73
2023/09/10 08:25:44;;;;;;;;;;;;;;;22.27;58.80;101296.09;4169392;28;19960;-71
2023/09/10 08:27:46;;;;;;;;;;;;;;;22.34;58.81;101301.50;4169828;28;20020;-72
2023/09/10 08:29:48;;;;;;;;;;;;;;;22.39;58.64;101298.84;4168869;28;20039;-73
2023/09/10 08:31:52;;;;;;;;;;;;;;;22.47;58.59;101298.47;4169295;28;20092;-71
2023/09/10 08:33:54;;;;;;;;;;;;;;;22.52;58.40;101300.50;4169736;28;20786;-74
2023/09/10 08:35:56;;;;;;;;;;;;;;;22.57;58.12;101300.59;4170464;28;20347;-73
2023/09/10 08:37:58;;;;;;;;;;;;;;;22.63;58.00;101302.38;4170878;28;20378;-73
2023/09/10 08:40:02;;;;;;;;;;;;;;;22.68;57.76;101297.81;4170201;28;20945;-72
2023/09/10 08:42:07;;;;;;;;;;;;;;;22.74;57.70;101290.47;4171163;28;19932;-73
2023/09/10 08:44:10;;;;;;;;;;;;;;;22.82;57.54;101298.38;4170123;28;20345;-73
2023/09/10 08:46:12;;;;;;;;;;;;;;;22.89;57.42;101291.88;4169970;28;20022;-73
2023/09/10 08:48:15;;;;;;;;;;;;;;;22.95;57.32;101291.72;4170684;28;20351;-72
2023/09/10 08:50:20;;;;;;;;;;;;;;;23.01;57.37;101290.75;4168920;28;20535;-71
2023/09/10 08:52:22;;;;;;;;;;;;;;;23.06;57.09;101292.75;4170897;28;20027;-73
2023/09/10 08:54:24;;;;;;;;;;;;;;;23.10;56.93;101293.13;4185532;28;20019;-73
2023/09/10 08:56:26;;;;;;;;;;;;;;;23.15;56.96;101290.44;4170277;28;20015;-73
2023/09/10 08:58:30;;;;;;;;;;;;;;;23.19;56.93;101283.38;4176469;28;19972;-73
2023/09/10 09:00:32;;;;;;;;;;;;;;;23.25;56.92;101282.38;4169468;28;20395;-73
2023/09/10 09:02:33;;;;;;;;;;;;;;;23.30;56.57;101290.72;4170894;28;20011;-70
2023/09/10 09:04:37;;;;;;;;;;;;;;;23.33;56.78;101287.47;4171586;28;19929;-72
2023/09/10 09:06:39;;;;;;;;;;;;;;;23.38;56.15;101282.03;4170089;28;20433;-72
2023/09/10 09:08:40;;;;;;;;;;;;;;;23.43;55.96;101280.47;4170684;28;20375;-73
2023/09/10 09:10:44;;;;;;;;;;;;;;;23.47;55.84;101285.22;4170135;28;20011;-72
2023/09/10 09:12:46;;;;;;;;;;;;;;;23.51;56.09;101288.31;4169794;28;20016;-72
2023/09/10 09:14:48;;;;;;;;;;;;;;;23.53;55.66;101280.66;4169356;28;20027;-72
2023/09/10 09:16:50;;;;;;;;;;;;;;;23.56;55.46;101274.63;4170245;28;20376;-73
2023/09/10 09:18:52;;;;;;;;;;;;;;;23.60;55.46;101274.97;4171766;28;20016;-73
2023/09/10 09:20:58;;;;;;;;;;;;;;;23.63;55.47;101268.94;4173218;28;20011;-73
2023/09/10 09:23:01;;;;;;;;;;;;;;;23.66;55.20;101273.94;4172696;28;20020;-72
2023/09/10 09:25:03;;;;;;;;;;;;;;;23.69;55.40;101278.97;4171644;28;20348;-72
2023/09/10 09:27:04;;;;;;;;;;;;;;;23.73;55.30;101285.63;4173221;28;20007;-73
2023/09/10 09:29:06;;;;;;;;;;;;;;;23.74;55.36;101290.88;4173455;28;19925;-72
2023/09/10 09:31:09;;;;;;;;;;;;;;;23.75;54.87;101276.03;4178002;28;19967;-73
2023/09/10 09:33:12;;;;;;;;;;;;;;;23.79;54.87;101281.03;4172988;28;20024;-73
2023/09/10 09:35:15;;;;;;;;;;;;;;;23.81;54.99;101270.56;4171879;28;19929;-73
2023/09/10 09:37:20;;;;;;;;;;;;;;;23.83;54.68;101276.69;4173641;28;20073;-74
2023/09/10 09:39:23;;;;;;;;;;;;;;;23.85;54.55;101277.31;4173951;28;20025;-70
2023/09/10 09:41:25;;;;;;;;;;;;;;;23.86;54.48;101271.53;4173231;28;20019;-70
2023/09/10 09:43:27;;;;;;;;;;;;;;;23.88;54.52;101272.09;4172802;28;20016;-70
2023/09/10 09:45:30;;;;;;;;;;;;;;;23.91;54.57;101279.03;4173882;28;20019;-71
2023/09/10 09:47:32;;;;;;;;;;;;;;;23.92;54.56;101275.22;4172989;28;20379;-73
2023/09/10 09:49:45;;;;;;;;;;;;;;;23.94;54.19;101273.03;4171918;28;20019;-72
2023/09/10 09:51:46;;;;;;;;;;;;;;;23.96;54.20;101276.34;4173073;28;20573;-72
2023/09/10 09:53:49;;;;;;;;;;;;;;;23.98;54.18;101276.09;4189823;28;20580;-68
2023/09/10 09:55:54;;;;;;;;;;;;;;;23.99;53.82;101269.50;4172713;28;19929;-68
2023/09/10 09:57:58;;;;;;;;;;;;;;;24.01;54.09;101275.59;4173245;28;20551;-67
2023/09/10 10:00:00;;;;;;;;;;;;;;;24.01;54.01;101272.84;4172463;28;20369;-65
2023/09/10 10:02:02;;;;;;;;;;;;;;;24.03;53.92;101273.44;4172444;28;20571;-69
2023/09/10 10:04:05;;;;;;;;;;;;;;;24.05;53.62;101272.06;4172645;28;20020;-69
2023/09/10 10:06:06;;;;;;;;;;;;;;;24.06;53.42;101261.88;4172313;28;20032;-68
2023/09/10 10:08:07;;;;;;;;;;;;;;;24.08;53.44;101268.81;4172934;28;19928;-69
2023/09/10 10:10:15;;;;;;;;;;;;;;;24.09;53.60;101262.22;4172133;28;20370;-69
2023/09/10 10:12:17;;;;;;;;;;;;;;;24.10;53.80;101263.84;4171521;28;20023;-69
2023/09/10 10:14:19;;;;;;;;;;;;;;;24.12;53.24;101260.84;4172601;28;20024;-70
2023/09/10 10:16:21;;;;;;;;;;;;;;;24.13;53.53;101254.25;4172636;28;19964;-69
2023/09/10 10:18:24;;;;;;;;;;;;;;;24.14;53.45;101258.69;4172367;28;20032;-69
2023/09/10 10:20:26;;;;;;;;;;;;;;;24.16;53.08;101258.44;4172266;28;20024;-69
2023/09/10 10:22:28;;;;;;;;;;;;;;;24.18;52.87;101253.47;4172011;28;20039;-68
2023/09/10 10:24:33;;;;;;;;;;;;;;;24.19;53.10;101252.41;4172491;28;20008;-69
2023/09/10 10:26:37;;;;;;;;;;;;;;;24.22;52.57;101254.66;4172776;28;20020;-68
2023/09/10 10:28:42;;;;;;;;;;;;;;;24.23;52.54;101257.16;4171593;28;20016;-66
2023/09/10 10:30:45;;;;;;;;;;;;;;;24.24;52.66;101253.28;4171359;28;20020;-69